sensor_id;sensor_type;location;lat;lon;timestamp;pressure;altitude;pressure_sealevel;temperature;humidity
55934;BME280;41839;41.386;2.082;2022-08-21T00:01:27;99846.03;;;27.70;55.46
55934;BME280;41839;41.386;2.082;2022-08-21T00:03:54;99832.34;;;27.54;56.06
55934;BME280;41839;41.386;2.082;2022-08-21T00:06:21;99844.47;;;27.63;56.38
55934;BME280;41839;41.386;2.082;2022-08-21T00:08:46;99842.69;;;27.63;57.42
55934;BME280;41839;41.386;2.082;2022-08-21T00:11:13;99845.41;;;27.58;56.60
55934;BME280;41839;41.386;2.082;2022-08-21T00:13:38;99834.22;;;27.49;57.15
55934;BME280;41839;41.386;2.082;2022-08-21T00:16:04;99811.59;;;27.37;58.11
55934;BME280;41839;41.386;2.082;2022-08-21T00:18:30;99826.44;;;27.43;57.92
55934;BME280;41839;41.386;2.082;2022-08-21T00:20:56;99838.66;;;27.47;58.38
55934;BME280;41839;41.386;2.082;2022-08-21T00:23:22;99845.78;;;27.45;58.94
55934;BME280;41839;41.386;2.082;2022-08-21T00:25:57;99837.19;;;27.35;59.00
55934;BME280;41839;41.386;2.082;2022-08-21T00:28:22;99833.88;;;27.25;59.30
55934;BME280;41839;41.386;2.082;2022-08-21T00:30:48;99829.63;;;27.20;59.18
55934;BME280;41839;41.386;2.082;2022-08-21T00:33:25;99836.59;;;27.22;59.49
55934;BME280;41839;41.386;2.082;2022-08-21T00:35:51;99824.31;;;27.21;59.83
55934;BME280;41839;41.386;2.082;2022-08-21T00:38:16;99836.34;;;27.33;60.46
55934;BME280;41839;41.386;2.082;2022-08-21T00:40:44;99841.59;;;27.34;60.67
55934;BME280;41839;41.386;2.082;2022-08-21T00:43:11;99819.88;;;27.22;60.36
55934;BME280;41839;41.386;2.082;2022-08-21T00:45:37;99815.38;;;27.25;60.87
55934;BME280;41839;41.386;2.082;2022-08-21T00:48:03;99802.38;;;27.19;61.31
55934;BME280;41839;41.386;2.082;2022-08-21T00:50:35;99829.22;;;27.36;60.99
55934;BME280;41839;41.386;2.082;2022-08-21T00:53:06;99827.50;;;27.35;61.52
55934;BME280;41839;41.386;2.082;2022-08-21T00:55:32;99827.50;;;27.35;62.89
55934;BME280;41839;41.386;2.082;2022-08-21T00:57:59;99818.72;;;27.33;62.31
55934;BME280;41839;41.386;2.082;2022-08-21T01:00:31;99804.00;;;27.23;62.97
55934;BME280;41839;41.386;2.082;2022-08-21T01:02:59;99834.50;;;27.36;63.03
55934;BME280;41839;41.386;2.082;2022-08-21T01:05:25;99816.16;;;27.32;62.76
55934;BME280;41839;41.386;2.082;2022-08-21T01:09:27;99823.09;;;27.34;63.39
55934;BME280;41839;41.386;2.082;2022-08-21T01:11:52;99819.56;;;27.35;63.28
55934;BME280;41839;41.386;2.082;2022-08-21T01:14:18;99821.44;;;27.30;64.37
55934;BME280;41839;41.386;2.082;2022-08-21T01:16:48;99822.31;;;27.31;64.18
55934;BME280;41839;41.386;2.082;2022-08-21T01:19:16;99820.50;;;27.33;63.82
55934;BME280;41839;41.386;2.082;2022-08-21T01:21:42;99809.19;;;27.28;63.98
55934;BME280;41839;41.386;2.082;2022-08-21T01:24:08;99815.16;;;27.34;64.23
55934;BME280;41839;41.386;2.082;2022-08-21T01:26:36;99793.38;;;27.26;64.50
55934;BME280;41839;41.386;2.082;2022-08-21T01:30:18;99806.38;;;27.35;63.40
55934;BME280;41839;41.386;2.082;2022-08-21T01:32:45;99783.88;;;27.19;63.97
55934;BME280;41839;41.386;2.082;2022-08-21T01:35:13;99794.19;;;27.28;64.80
55934;BME280;41839;41.386;2.082;2022-08-21T01:37:39;99808.94;;;27.39;64.43
55934;BME280;41839;41.386;2.082;2022-08-21T01:41:05;99811.66;;;27.35;65.16
55934;BME280;41839;41.386;2.082;2022-08-21T01:43:30;99811.66;;;27.34;65.21
55934;BME280;41839;41.386;2.082;2022-08-21T01:45:56;99788.31;;;27.17;65.07
55934;BME280;41839;41.386;2.082;2022-08-21T01:48:21;99812.66;;;27.30;65.30
55934;BME280;41839;41.386;2.082;2022-08-21T01:50:47;99809.97;;;27.31;65.44
55934;BME280;41839;41.386;2.082;2022-08-21T01:53:12;99802.97;;;27.30;65.17
55934;BME280;41839;41.386;2.082;2022-08-21T01:55:41;99803.88;;;27.29;65.56
55934;BME280;41839;41.386;2.082;2022-08-21T01:58:19;99785.59;;;27.20;65.45
55934;BME280;41839;41.386;2.082;2022-08-21T02:00:44;99775.13;;;27.16;65.37
55934;BME280;41839;41.386;2.082;2022-08-21T02:03:10;99791.66;;;27.24;65.54
55934;BME280;41839;41.386;2.082;2022-08-21T02:05:35;99789.94;;;27.23;65.53
55934;BME280;41839;41.386;2.082;2022-08-21T02:08:01;99784.66;;;27.23;65.14
55934;BME280;41839;41.386;2.082;2022-08-21T02:10:30;99785.53;;;27.23;65.61
55934;BME280;41839;41.386;2.082;2022-08-21T02:14:49;99768.09;;;27.16;65.41
55934;BME280;41839;41.386;2.082;2022-08-21T02:18:43;99757.72;;;27.07;65.22
55934;BME280;41839;41.386;2.082;2022-08-21T02:21:09;99766.38;;;27.12;64.93
55934;BME280;41839;41.386;2.082;2022-08-21T02:23:35;99775.94;;;27.19;64.77
55934;BME280;41839;41.386;2.082;2022-08-21T02:26:03;99776.91;;;27.15;64.93
55934;BME280;41839;41.386;2.082;2022-08-21T02:29:34;99779.59;;;27.12;64.55
55934;BME280;41839;41.386;2.082;2022-08-21T02:32:00;99776.94;;;27.12;63.81
55934;BME280;41839;41.386;2.082;2022-08-21T02:35:47;99771.63;;;27.15;63.91
55934;BME280;41839;41.386;2.082;2022-08-21T02:38:17;99771.72;;;27.10;63.97
55934;BME280;41839;41.386;2.082;2022-08-21T02:40:45;99774.38;;;27.09;64.41
55934;BME280;41839;41.386;2.082;2022-08-21T02:43:12;99766.47;;;27.09;64.36
55934;BME280;41839;41.386;2.082;2022-08-21T02:45:38;99759.41;;;27.09;64.50
55934;BME280;41839;41.386;2.082;2022-08-21T02:48:05;99758.50;;;27.10;65.13
55934;BME280;41839;41.386;2.082;2022-08-21T02:50:37;99749.75;;;27.08;64.51
55934;BME280;41839;41.386;2.082;2022-08-21T02:53:04;99760.22;;;27.13;64.36
55934;BME280;41839;41.386;2.082;2022-08-21T02:55:31;99755.81;;;27.12;64.44
55934;BME280;41839;41.386;2.082;2022-08-21T02:57:58;99755.81;;;27.13;64.71
55934;BME280;41839;41.386;2.082;2022-08-21T03:00:26;99754.91;;;27.16;64.20
55934;BME280;41839;41.386;2.082;2022-08-21T03:02:53;99761.00;;;27.18;63.81
55934;BME280;41839;41.386;2.082;2022-08-21T03:06:34;99750.53;;;27.13;64.23
55934;BME280;41839;41.386;2.082;2022-08-21T03:09:00;99746.97;;;27.16;63.50
55934;BME280;41839;41.386;2.082;2022-08-21T03:13:03;99746.63;;;27.30;61.88
55934;BME280;41839;41.386;2.082;2022-08-21T03:15:29;99742.06;;;27.36;61.75
55934;BME280;41839;41.386;2.082;2022-08-21T03:17:55;99742.06;;;27.36;62.74
55934;BME280;41839;41.386;2.082;2022-08-21T03:20:23;99745.75;;;27.29;63.79
55934;BME280;41839;41.386;2.082;2022-08-21T03:22:50;99746.72;;;27.25;64.16
55934;BME280;41839;41.386;2.082;2022-08-21T03:25:16;99738.84;;;27.24;64.61
55934;BME280;41839;41.386;2.082;2022-08-21T03:27:43;99729.16;;;27.24;64.02
55934;BME280;41839;41.386;2.082;2022-08-21T03:30:09;99736.13;;;27.27;62.80
55934;BME280;41839;41.386;2.082;2022-08-21T03:32:36;99736.16;;;27.25;64.10
55934;BME280;41839;41.386;2.082;2022-08-21T03:35:03;99735.28;;;27.25;64.06
55934;BME280;41839;41.386;2.082;2022-08-21T03:37:28;99730.16;;;27.20;64.69
55934;BME280;41839;41.386;2.082;2022-08-21T03:39:54;99734.50;;;27.21;64.27
55934;BME280;41839;41.386;2.082;2022-08-21T03:42:19;99730.16;;;27.20;64.15
55934;BME280;41839;41.386;2.082;2022-08-21T03:44:45;99736.22;;;27.22;64.98
55934;BME280;41839;41.386;2.082;2022-08-21T03:47:10;99739.06;;;27.16;65.42
55934;BME280;41839;41.386;2.082;2022-08-21T03:49:36;99738.22;;;27.14;65.48
55934;BME280;41839;41.386;2.082;2022-08-21T03:52:03;99727.78;;;27.06;64.69
55934;BME280;41839;41.386;2.082;2022-08-21T03:54:28;99740.91;;;27.11;65.62
55934;BME280;41839;41.386;2.082;2022-08-21T03:56:54;99743.53;;;27.11;65.44
55934;BME280;41839;41.386;2.082;2022-08-21T04:01:59;99732.28;;;27.03;64.94
55934;BME280;41839;41.386;2.082;2022-08-21T04:04:27;99752.28;;;27.15;64.60
55934;BME280;41839;41.386;2.082;2022-08-21T04:06:53;99734.84;;;27.06;64.99
55934;BME280;41839;41.386;2.082;2022-08-21T04:09:19;99748.69;;;27.17;65.89
55934;BME280;41839;41.386;2.082;2022-08-21T04:11:45;99747.00;;;27.15;66.32
55934;BME280;41839;41.386;2.082;2022-08-21T04:14:13;99747.91;;;27.12;66.01
55934;BME280;41839;41.386;2.082;2022-08-21T04:16:40;99741.75;;;27.13;66.72
55934;BME280;41839;41.386;2.082;2022-08-21T04:19:07;99713.16;;;26.93;66.43
55934;BME280;41839;41.386;2.082;2022-08-21T04:22:55;99731.41;;;27.04;67.16
55934;BME280;41839;41.386;2.082;2022-08-21T04:25:22;99748.75;;;27.12;67.17
55934;BME280;41839;41.386;2.082;2022-08-21T04:27:48;99739.19;;;27.08;67.25
55934;BME280;41839;41.386;2.082;2022-08-21T04:30:15;99742.63;;;27.12;67.30
55934;BME280;41839;41.386;2.082;2022-08-21T04:32:49;99743.53;;;27.11;67.60
55934;BME280;41839;41.386;2.082;2022-08-21T04:35:18;99747.13;;;27.08;67.73
55934;BME280;41839;41.386;2.082;2022-08-21T04:37:43;99747.09;;;27.10;67.11
55934;BME280;41839;41.386;2.082;2022-08-21T04:40:11;99752.41;;;27.08;67.46
55934;BME280;41839;41.386;2.082;2022-08-21T04:42:48;99745.34;;;27.09;67.55
55934;BME280;41839;41.386;2.082;2022-08-21T04:45:19;99747.97;;;27.09;68.02
55934;BME280;41839;41.386;2.082;2022-08-21T04:47:47;99741.13;;;27.02;67.51
55934;BME280;41839;41.386;2.082;2022-08-21T04:50:13;99744.47;;;27.08;68.00
55934;BME280;41839;41.386;2.082;2022-08-21T04:52:39;99743.63;;;27.06;68.00
55934;BME280;41839;41.386;2.082;2022-08-21T04:55:05;99730.56;;;27.00;67.85
55934;BME280;41839;41.386;2.082;2022-08-21T04:57:30;99745.47;;;27.03;68.29
55934;BME280;41839;41.386;2.082;2022-08-21T04:59:56;99734.19;;;26.98;68.34
55934;BME280;41839;41.386;2.082;2022-08-21T05:02:21;99744.53;;;27.05;67.48
55934;BME280;41839;41.386;2.082;2022-08-21T05:04:52;99743.63;;;27.06;67.72
55934;BME280;41839;41.386;2.082;2022-08-21T05:07:23;99723.69;;;26.95;68.15
55934;BME280;41839;41.386;2.082;2022-08-21T05:09:50;99737.41;;;27.10;68.05
55934;BME280;41839;41.386;2.082;2022-08-21T05:12:17;99723.69;;;26.95;68.65
55934;BME280;41839;41.386;2.082;2022-08-21T05:14:42;99724.56;;;26.95;68.56
55934;BME280;41839;41.386;2.082;2022-08-21T05:17:08;99721.06;;;26.93;68.41
55934;BME280;41839;41.386;2.082;2022-08-21T05:19:34;99739.41;;;26.99;68.67
55934;BME280;41839;41.386;2.082;2022-08-21T05:22:24;99756.16;;;26.98;69.03
55934;BME280;41839;41.386;2.082;2022-08-21T05:24:51;99753.53;;;26.97;68.52
55934;BME280;41839;41.386;2.082;2022-08-21T05:27:16;99754.59;;;26.89;68.54
55934;BME280;41839;41.386;2.082;2022-08-21T05:30:49;99751.25;;;26.83;68.29
55934;BME280;41839;41.386;2.082;2022-08-21T05:33:15;99742.53;;;26.79;67.97
55934;BME280;41839;41.386;2.082;2022-08-21T05:37:42;99754.75;;;26.82;69.32
55934;BME280;41839;41.386;2.082;2022-08-21T05:40:07;99735.63;;;26.74;68.87
55934;BME280;41839;41.386;2.082;2022-08-21T05:42:33;99753.97;;;26.78;68.60
55934;BME280;41839;41.386;2.082;2022-08-21T05:44:59;99733.84;;;26.74;68.95
55934;BME280;41839;41.386;2.082;2022-08-21T05:47:24;99734.69;;;26.76;68.69
55934;BME280;41839;41.386;2.082;2022-08-21T05:49:50;99763.38;;;26.90;68.70
55934;BME280;41839;41.386;2.082;2022-08-21T05:52:20;99755.47;;;26.90;69.14
55934;BME280;41839;41.386;2.082;2022-08-21T05:54:46;99760.72;;;26.92;69.11
55934;BME280;41839;41.386;2.082;2022-08-21T05:57:11;99760.75;;;26.90;69.35
55934;BME280;41839;41.386;2.082;2022-08-21T05:59:36;99766.88;;;26.92;69.16
55934;BME280;41839;41.386;2.082;2022-08-21T06:03:57;99752.91;;;26.87;68.22
55934;BME280;41839;41.386;2.082;2022-08-21T06:06:22;99764.09;;;26.97;68.11
55934;BME280;41839;41.386;2.082;2022-08-21T06:10:18;99766.72;;;26.98;69.35
55934;BME280;41839;41.386;2.082;2022-08-21T06:12:44;99745.88;;;26.86;69.54
55934;BME280;41839;41.386;2.082;2022-08-21T06:15:10;99776.34;;;27.01;69.17
55934;BME280;41839;41.386;2.082;2022-08-21T06:17:36;99755.53;;;26.88;69.56
55934;BME280;41839;41.386;2.082;2022-08-21T06:20:02;99778.06;;;27.02;69.29
55934;BME280;41839;41.386;2.082;2022-08-21T06:22:28;99779.78;;;27.04;69.76
55934;BME280;41839;41.386;2.082;2022-08-21T06:24:54;99771.09;;;26.99;67.88
55934;BME280;41839;41.386;2.082;2022-08-21T06:27:19;99779.72;;;27.07;66.31
55934;BME280;41839;41.386;2.082;2022-08-21T06:29:45;99778.03;;;27.03;68.88
55934;BME280;41839;41.386;2.082;2022-08-21T06:32:12;99757.25;;;26.89;66.54
55934;BME280;41839;41.386;2.082;2022-08-21T06:34:39;99782.28;;;27.10;65.37
55934;BME280;41839;41.386;2.082;2022-08-21T06:37:04;99786.59;;;27.15;64.11
55934;BME280;41839;41.386;2.082;2022-08-21T06:39:31;99784.63;;;27.24;65.00
55934;BME280;41839;41.386;2.082;2022-08-21T06:42:06;99752.31;;;27.11;66.43
55934;BME280;41839;41.386;2.082;2022-08-21T06:44:31;99780.97;;;27.28;63.87
55934;BME280;41839;41.386;2.082;2022-08-21T06:46:57;99778.31;;;27.30;65.39
55934;BME280;41839;41.386;2.082;2022-08-21T06:51:26;99760.66;;;27.32;65.63
55934;BME280;41839;41.386;2.082;2022-08-21T06:53:54;99775.25;;;27.47;63.21
55934;BME280;41839;41.386;2.082;2022-08-21T06:56:20;99774.50;;;27.42;64.61
55934;BME280;41839;41.386;2.082;2022-08-21T06:58:46;99770.09;;;27.42;64.37
55934;BME280;41839;41.386;2.082;2022-08-21T07:01:11;99767.31;;;27.47;63.02
55934;BME280;41839;41.386;2.082;2022-08-21T07:03:42;99765.41;;;27.53;65.06
55934;BME280;41839;41.386;2.082;2022-08-21T07:06:08;99759.91;;;27.61;62.78
55934;BME280;41839;41.386;2.082;2022-08-21T07:08:35;99756.19;;;27.70;62.26
55934;BME280;41839;41.386;2.082;2022-08-21T07:11:04;99758.19;;;27.94;61.53
55934;BME280;41839;41.386;2.082;2022-08-21T07:13:32;99770.31;;;28.33;62.22
55934;BME280;41839;41.386;2.082;2022-08-21T07:18:02;99759.66;;;28.95;59.67
55934;BME280;41839;41.386;2.082;2022-08-21T07:20:29;99758.88;;;28.91;58.93
55934;BME280;41839;41.386;2.082;2022-08-21T07:22:56;99760.09;;;28.81;58.89
55934;BME280;41839;41.386;2.082;2022-08-21T07:25:22;99757.81;;;29.27;59.84
55934;BME280;41839;41.386;2.082;2022-08-21T07:28:00;99748.84;;;29.56;57.36
55934;BME280;41839;41.386;2.082;2022-08-21T07:30:26;99750.69;;;29.80;58.58
55934;BME280;41839;41.386;2.082;2022-08-21T07:32:52;99756.22;;;29.98;57.80
55934;BME280;41839;41.386;2.082;2022-08-21T07:35:29;99749.75;;;30.06;56.14
55934;BME280;41839;41.386;2.082;2022-08-21T07:37:56;99742.41;;;30.13;55.38
55934;BME280;41839;41.386;2.082;2022-08-21T07:40:21;99746.13;;;30.09;54.30
55934;BME280;41839;41.386;2.082;2022-08-21T07:42:48;99756.84;;;30.06;57.57
55934;BME280;41839;41.386;2.082;2022-08-21T07:45:18;99751.16;;;30.17;56.21
55934;BME280;41839;41.386;2.082;2022-08-21T07:47:45;99751.25;;;30.39;55.05
55934;BME280;41839;41.386;2.082;2022-08-21T07:50:12;99747.56;;;30.18;56.33
55934;BME280;41839;41.386;2.082;2022-08-21T07:52:38;99740.16;;;30.02;54.95
55934;BME280;41839;41.386;2.082;2022-08-21T07:55:04;99745.78;;;30.18;58.14
55934;BME280;41839;41.386;2.082;2022-08-21T07:57:30;99748.81;;;30.32;57.70
55934;BME280;41839;41.386;2.082;2022-08-21T08:01:55;99718.47;;;30.40;56.75
55934;BME280;41839;41.386;2.082;2022-08-21T08:04:21;99756.47;;;30.40;55.23
55934;BME280;41839;41.386;2.082;2022-08-21T08:06:47;99749.22;;;30.45;55.52
55934;BME280;41839;41.386;2.082;2022-08-21T08:09:12;99750.72;;;30.52;56.74
55934;BME280;41839;41.386;2.082;2022-08-21T08:11:40;99732.72;;;30.12;58.42
55934;BME280;41839;41.386;2.082;2022-08-21T08:15:42;99752.56;;;29.50;59.25
55934;BME280;41839;41.386;2.082;2022-08-21T08:18:08;99752.94;;;29.66;59.94
55934;BME280;41839;41.386;2.082;2022-08-21T08:20:33;99755.13;;;29.53;56.72
55934;BME280;41839;41.386;2.082;2022-08-21T08:22:59;99740.50;;;29.41;56.38
55934;BME280;41839;41.386;2.082;2022-08-21T08:25:25;99749.81;;;29.53;56.56
55934;BME280;41839;41.386;2.082;2022-08-21T08:27:51;99747.75;;;29.36;57.05
55934;BME280;41839;41.386;2.082;2022-08-21T08:30:18;99747.59;;;29.14;58.35
55934;BME280;41839;41.386;2.082;2022-08-21T08:32:44;99722.34;;;28.75;58.55
55934;BME280;41839;41.386;2.082;2022-08-21T08:35:09;99733.31;;;28.90;58.70
55934;BME280;41839;41.386;2.082;2022-08-21T08:37:36;99739.28;;;29.25;57.67
55934;BME280;41839;41.386;2.082;2022-08-21T08:41:29;99736.88;;;29.44;57.98
55934;BME280;41839;41.386;2.082;2022-08-21T08:45:06;99735.75;;;29.51;58.18
55934;BME280;41839;41.386;2.082;2022-08-21T08:47:37;99730.78;;;29.15;57.80
55934;BME280;41839;41.386;2.082;2022-08-21T08:54:35;99734.00;;;28.97;58.84
55934;BME280;41839;41.386;2.082;2022-08-21T08:57:09;99713.06;;;29.17;58.17
55934;BME280;41839;41.386;2.082;2022-08-21T09:01:01;99733.34;;;29.18;58.05
55934;BME280;41839;41.386;2.082;2022-08-21T09:03:29;99731.91;;;29.35;58.28
55934;BME280;41839;41.386;2.082;2022-08-21T09:07:47;99736.75;;;29.22;58.74
55934;BME280;41839;41.386;2.082;2022-08-21T09:10:20;99728.38;;;29.34;58.53
55934;BME280;41839;41.386;2.082;2022-08-21T09:21:06;99731.06;;;29.59;57.90
55934;BME280;41839;41.386;2.082;2022-08-21T09:23:57;99729.25;;;29.60;57.86
55934;BME280;41839;41.386;2.082;2022-08-21T09:29:25;99736.56;;;29.53;58.10
55934;BME280;41839;41.386;2.082;2022-08-21T09:31:54;99729.53;;;29.52;57.48
55934;BME280;41839;41.386;2.082;2022-08-21T09:34:26;99739.31;;;29.77;56.79
55934;BME280;41839;41.386;2.082;2022-08-21T09:36:52;99731.97;;;29.58;57.24
55934;BME280;41839;41.386;2.082;2022-08-21T09:39:29;99710.88;;;29.30;57.42
55934;BME280;41839;41.386;2.082;2022-08-21T09:42:00;99727.56;;;29.32;59.13
55934;BME280;41839;41.386;2.082;2022-08-21T09:44:30;99727.41;;;29.37;58.40
55934;BME280;41839;41.386;2.082;2022-08-21T09:50:49;99727.28;;;29.67;58.02
55934;BME280;41839;41.386;2.082;2022-08-21T09:53:28;99718.88;;;29.80;57.12
55934;BME280;41839;41.386;2.082;2022-08-21T09:56:04;99720.66;;;29.53;57.76
55934;BME280;41839;41.386;2.082;2022-08-21T09:58:50;99728.91;;;29.46;59.13
55934;BME280;41839;41.386;2.082;2022-08-21T10:01:22;99718.84;;;29.55;57.90
55934;BME280;41839;41.386;2.082;2022-08-21T10:06:27;99709.44;;;29.45;58.25
55934;BME280;41839;41.386;2.082;2022-08-21T10:09:14;99710.38;;;29.44;58.67
55934;BME280;41839;41.386;2.082;2022-08-21T10:11:55;99705.41;;;29.60;57.42
55934;BME280;41839;41.386;2.082;2022-08-21T10:15:23;99674.13;;;29.71;58.93
55934;BME280;41839;41.386;2.082;2022-08-21T10:20:41;99681.72;;;29.30;59.13
55934;BME280;41839;41.386;2.082;2022-08-21T10:26:11;99667.75;;;29.25;59.43
55934;BME280;41839;41.386;2.082;2022-08-21T10:33:13;99674.72;;;29.28;59.49
55934;BME280;41839;41.386;2.082;2022-08-21T10:41:44;99637.53;;;28.78;60.85
55934;BME280;41839;41.386;2.082;2022-08-21T10:44:36;99669.91;;;28.86;61.13
55934;BME280;41839;41.386;2.082;2022-08-21T10:56:04;99644.94;;;29.21;59.71
55934;BME280;41839;41.386;2.082;2022-08-21T10:58:37;99662.00;;;29.64;58.37
55934;BME280;41839;41.386;2.082;2022-08-21T11:01:12;99658.47;;;29.63;58.32
55934;BME280;41839;41.386;2.082;2022-08-21T11:03:52;99504.56;;;28.69;58.44
55934;BME280;41839;41.386;2.082;2022-08-21T11:06:29;99656.00;;;30.07;56.91
55934;BME280;41839;41.386;2.082;2022-08-21T11:09:12;99655.13;;;30.52;55.26
55934;BME280;41839;41.386;2.082;2022-08-21T11:11:47;99653.56;;;30.01;56.55
55934;BME280;41839;41.386;2.082;2022-08-21T11:14:31;99645.94;;;30.16;56.38
55934;BME280;41839;41.386;2.082;2022-08-21T11:17:07;99636.38;;;30.57;55.91
55934;BME280;41839;41.386;2.082;2022-08-21T11:20:16;99641.22;;;30.24;56.08
55934;BME280;41839;41.386;2.082;2022-08-21T11:22:46;99635.13;;;30.44;55.50
55934;BME280;41839;41.386;2.082;2022-08-21T11:28:02;99614.66;;;30.69;54.20
55934;BME280;41839;41.386;2.082;2022-08-21T11:36:44;99628.94;;;30.87;54.42
55934;BME280;41839;41.386;2.082;2022-08-21T11:42:16;99616.81;;;30.82;54.18
55934;BME280;41839;41.386;2.082;2022-08-21T11:50:14;99602.09;;;31.56;52.42
55934;BME280;41839;41.386;2.082;2022-08-21T11:52:52;99580.03;;;31.54;53.31
55934;BME280;41839;41.386;2.082;2022-08-21T11:55:32;99599.75;;;31.49;52.36
55934;BME280;41839;41.386;2.082;2022-08-21T11:58:07;99574.13;;;30.86;53.73
55934;BME280;41839;41.386;2.082;2022-08-21T12:00:39;99604.53;;;31.20;53.19
55934;BME280;41839;41.386;2.082;2022-08-21T12:03:12;99599.22;;;30.79;55.03
55934;BME280;41839;41.386;2.082;2022-08-21T12:05:44;99601.16;;;30.74;54.68
55934;BME280;41839;41.386;2.082;2022-08-21T12:08:32;99587.16;;;30.70;55.65
55934;BME280;41839;41.386;2.082;2022-08-21T12:13:38;99581.44;;;30.37;56.08
55934;BME280;41839;41.386;2.082;2022-08-21T12:18:35;99582.31;;;30.14;56.66
55934;BME280;41839;41.386;2.082;2022-08-21T12:21:16;99576.56;;;30.03;57.00
55934;BME280;41839;41.386;2.082;2022-08-21T12:35:00;99585.84;;;30.15;56.80
55934;BME280;41839;41.386;2.082;2022-08-21T12:37:45;99581.94;;;30.01;57.23
55934;BME280;41839;41.386;2.082;2022-08-21T12:40:28;99529.34;;;29.67;57.83
55934;BME280;41839;41.386;2.082;2022-08-21T12:42:57;99573.63;;;30.10;57.42
55934;BME280;41839;41.386;2.082;2022-08-21T12:45:31;99573.28;;;29.96;57.88
55934;BME280;41839;41.386;2.082;2022-08-21T12:48:06;99577.69;;;29.74;58.78
55934;BME280;41839;41.386;2.082;2022-08-21T12:51:06;99576.59;;;29.54;59.18
55934;BME280;41839;41.386;2.082;2022-08-21T12:56:17;99576.94;;;29.45;59.95
55934;BME280;41839;41.386;2.082;2022-08-21T13:01:04;99556.66;;;29.44;59.84
55934;BME280;41839;41.386;2.082;2022-08-21T13:03:35;99561.84;;;29.47;59.97
55934;BME280;41839;41.386;2.082;2022-08-21T13:06:03;99540.47;;;29.28;59.86
55934;BME280;41839;41.386;2.082;2022-08-21T13:08:29;99556.88;;;29.38;60.20
55934;BME280;41839;41.386;2.082;2022-08-21T13:11:01;99557.25;;;29.52;60.05
55934;BME280;41839;41.386;2.082;2022-08-21T13:13:29;99559.72;;;29.57;59.65
55934;BME280;41839;41.386;2.082;2022-08-21T13:16:03;99555.25;;;29.59;60.10
55934;BME280;41839;41.386;2.082;2022-08-21T13:18:33;99554.72;;;29.73;58.87
55934;BME280;41839;41.386;2.082;2022-08-21T13:21:07;99553.88;;;29.72;59.43
55934;BME280;41839;41.386;2.082;2022-08-21T13:24:58;99539.44;;;29.56;59.26
55934;BME280;41839;41.386;2.082;2022-08-21T13:27:29;99557.38;;;29.49;60.37
55934;BME280;41839;41.386;2.082;2022-08-21T13:30:18;99545.47;;;29.61;60.05
55934;BME280;41839;41.386;2.082;2022-08-21T13:32:44;99550.16;;;29.53;60.36
55934;BME280;41839;41.386;2.082;2022-08-21T13:38:30;99528.78;;;29.34;61.67
55934;BME280;41839;41.386;2.082;2022-08-21T13:41:01;99530.63;;;29.55;59.81
55934;BME280;41839;41.386;2.082;2022-08-21T13:43:31;99544.19;;;29.71;59.51
55934;BME280;41839;41.386;2.082;2022-08-21T13:45:57;99540.84;;;29.66;59.81
55934;BME280;41839;41.386;2.082;2022-08-21T13:49:46;99533.22;;;29.57;59.41
55934;BME280;41839;41.386;2.082;2022-08-21T13:52:26;99529.94;;;29.50;59.92
55934;BME280;41839;41.386;2.082;2022-08-21T13:57:24;99534.69;;;29.66;59.60
55934;BME280;41839;41.386;2.082;2022-08-21T13:59:50;99532.47;;;29.53;60.05
55934;BME280;41839;41.386;2.082;2022-08-21T14:02:19;99534.06;;;29.57;60.34
55934;BME280;41839;41.386;2.082;2022-08-21T14:07:19;99516.81;;;29.47;61.16
55934;BME280;41839;41.386;2.082;2022-08-21T14:09:46;99520.59;;;29.40;61.26
55934;BME280;41839;41.386;2.082;2022-08-21T14:12:24;99512.81;;;29.35;62.41
55934;BME280;41839;41.386;2.082;2022-08-21T14:14:51;99488.00;;;29.14;62.48
55934;BME280;41839;41.386;2.082;2022-08-21T14:17:39;99506.50;;;29.39;61.25
55934;BME280;41839;41.386;2.082;2022-08-21T14:20:09;99514.16;;;29.47;61.62
55934;BME280;41839;41.386;2.082;2022-08-21T14:22:48;99499.41;;;29.40;61.41
55934;BME280;41839;41.386;2.082;2022-08-21T14:25:15;99500.03;;;29.47;61.35
55934;BME280;41839;41.386;2.082;2022-08-21T14:30:33;99483.59;;;29.60;61.03
55934;BME280;41839;41.386;2.082;2022-08-21T14:33:00;99490.03;;;29.55;61.66
55934;BME280;41839;41.386;2.082;2022-08-21T14:36:17;99480.16;;;29.58;60.68
55934;BME280;41839;41.386;2.082;2022-08-21T14:38:43;99441.22;;;29.37;61.19
55934;BME280;41839;41.386;2.082;2022-08-21T14:41:18;99461.16;;;29.47;61.04
55934;BME280;41839;41.386;2.082;2022-08-21T14:43:46;99465.47;;;29.50;61.08
55934;BME280;41839;41.386;2.082;2022-08-21T14:48:41;99472.56;;;29.26;61.98
55934;BME280;41839;41.386;2.082;2022-08-21T14:51:08;99472.09;;;29.14;62.12
55934;BME280;41839;41.386;2.082;2022-08-21T14:53:33;99486.88;;;29.20;62.04
55934;BME280;41839;41.386;2.082;2022-08-21T14:55:59;99483.66;;;29.35;61.99
55934;BME280;41839;41.386;2.082;2022-08-21T14:58:31;99469.44;;;29.38;62.20
55934;BME280;41839;41.386;2.082;2022-08-21T15:00:57;99443.38;;;29.27;61.68
55934;BME280;41839;41.386;2.082;2022-08-21T15:03:24;99425.53;;;29.09;62.14
55934;BME280;41839;41.386;2.082;2022-08-21T15:05:50;99422.91;;;29.07;63.10
55934;BME280;41839;41.386;2.082;2022-08-21T15:08:16;99431.59;;;29.11;62.52
55934;BME280;41839;41.386;2.082;2022-08-21T15:10:43;99448.78;;;29.24;62.50
55934;BME280;41839;41.386;2.082;2022-08-21T15:13:09;99470.38;;;29.37;62.04
55934;BME280;41839;41.386;2.082;2022-08-21T15:17:18;99467.44;;;29.21;61.88
55934;BME280;41839;41.386;2.082;2022-08-21T15:19:44;99486.47;;;29.07;62.52
55934;BME280;41839;41.386;2.082;2022-08-21T15:22:09;99461.56;;;28.88;62.41
55934;BME280;41839;41.386;2.082;2022-08-21T15:24:35;99479.63;;;29.02;62.38
55934;BME280;41839;41.386;2.082;2022-08-21T15:27:02;99461.66;;;28.85;63.06
55934;BME280;41839;41.386;2.082;2022-08-21T15:29:30;99464.00;;;28.94;62.45
55934;BME280;41839;41.386;2.082;2022-08-21T15:32:15;99462.53;;;29.10;62.03